Time;durP1;ratioP1;P1;durP2;ratioP2;P2;SDS_P1;SDS_P2;PMS_P1;PMS_P2;Temp;Humidity;BMP_temperature;BMP_pressure;BME280_temperature;BME280_humidity;BME280_pressure;Samples;Min_cycle;Max_cycle;Signal;HPM_P1;HPM_P2
2022/08/03 00:00:56;;;;;;;7.23;2.30;;;19.10;99.90;;;;;;4956520;29;20680;-74
2022/08/03 00:03:23;;;;;;;5.93;2.23;;;19.10;99.90;;;;;;4956404;29;20943;-74
2022/08/03 00:05:51;;;;;;;7.13;2.53;;;19.00;99.90;;;;;;4956607;29;20235;-74
2022/08/03 00:08:19;;;;;;;7.78;2.35;;;19.00;99.90;;;;;;4956944;29;20207;-74
2022/08/03 00:10:46;;;;;;;7.67;2.30;;;19.00;99.90;;;;;;4956749;29;20283;-74
2022/08/03 00:13:13;;;;;;;5.90;2.10;;;18.90;99.90;;;;;;4956593;29;20611;-74
2022/08/03 00:15:40;;;;;;;6.43;2.03;;;18.90;99.90;;;;;;4956949;29;20214;-74
2022/08/03 00:18:08;;;;;;;7.63;2.33;;;18.80;99.90;;;;;;4956295;29;20235;-74
2022/08/03 00:20:35;;;;;;;5.43;2.17;;;18.80;99.90;;;;;;4956662;29;20282;-74
2022/08/03 00:23:02;;;;;;;4.87;2.20;;;18.70;99.90;;;;;;4956530;29;20243;-74
2022/08/03 00:25:30;;;;;;;4.63;1.93;;;18.70;99.90;;;;;;4956637;29;20290;-74
2022/08/03 00:27:57;;;;;;;6.37;2.40;;;18.60;99.90;;;;;;4956152;29;20267;-74
2022/08/03 00:30:24;;;;;;;6.80;2.20;;;18.50;99.90;;;;;;4956528;29;20669;-74
2022/08/03 00:32:51;;;;;;;5.20;2.27;;;18.50;99.90;;;;;;4956081;29;20239;-74
2022/08/03 00:35:18;;;;;;;4.47;2.20;;;18.50;99.90;;;;;;4939306;29;20234;-74
2022/08/03 00:37:45;;;;;;;6.50;2.20;;;18.60;99.90;;;;;;4956283;29;20290;-74
2022/08/03 00:40:14;;;;;;;4.90;1.97;;;18.60;99.90;;;;;;4955987;29;20242;-74
2022/08/03 00:42:52;;;;;;;5.37;2.20;;;18.60;99.90;;;;;;4956202;29;20203;-74
2022/08/03 00:45:20;;;;;;;3.83;2.00;;;18.50;99.90;;;;;;4955819;29;20206;-74
2022/08/03 00:47:47;;;;;;;4.10;2.00;;;18.50;99.90;;;;;;4956342;29;20290;-74
2022/08/03 00:50:14;;;;;;;5.07;2.00;;;18.50;99.90;;;;;;4955819;29;20235;-74
2022/08/03 00:52:41;;;;;;;8.57;2.33;;;18.40;99.90;;;;;;4955985;29;20951;-74
2022/08/03 00:55:10;;;;;;;6.97;2.03;;;18.40;99.90;;;;;;4955349;28;20263;-74
2022/08/03 00:57:37;;;;;;;4.33;2.57;;;18.40;99.90;;;;;;4955691;29;20227;-74
2022/08/03 01:00:08;;;;;;;6.80;2.30;;;18.40;99.90;;;;;;4955040;28;20318;-74
2022/08/03 01:02:35;;;;;;;4.67;2.10;;;18.40;99.90;;;;;;4955872;29;20227;-74
2022/08/03 01:05:03;;;;;;;8.80;2.30;;;18.40;99.90;;;;;;4955703;29;20290;-74
2022/08/03 01:07:41;;;;;;;4.03;2.03;;;18.30;99.90;;;;;;4955514;29;20243;-74
2022/08/03 01:10:17;;;;;;;5.77;2.33;;;18.40;99.90;;;;;;4955535;29;20229;-74
2022/08/03 01:12:51;;;;;;;4.37;2.00;;;18.30;99.90;;;;;;4955564;29;20245;-74
2022/08/03 01:15:29;;;;;;;6.00;2.30;;;18.30;99.90;;;;;;4955070;29;20205;-74
2022/08/03 01:17:59;;;;;;;5.13;2.23;;;18.30;99.90;;;;;;4955508;29;20676;-74
2022/08/03 01:20:31;;;;;;;6.70;2.00;;;18.30;99.90;;;;;;4955774;29;20203;-74
2022/08/03 01:23:10;;;;;;;8.20;2.33;;;18.20;99.90;;;;;;4955467;29;20294;-74
2022/08/03 01:25:51;;;;;;;3.77;2.13;;;18.30;99.90;;;;;;4955326;29;20761;-74
2022/08/03 01:28:33;;;;;;;6.97;2.20;;;18.20;99.90;;;;;;4955021;29;20682;-74
2022/08/03 01:31:06;;;;;;;5.67;2.60;;;18.20;99.90;;;;;;4954675;29;20262;-74
2022/08/03 01:33:37;;;;;;;6.53;2.40;;;18.20;99.90;;;;;;4954920;29;20207;-74
2022/08/03 01:36:07;;;;;;;5.13;2.53;;;18.10;99.90;;;;;;4955134;29;20230;-74
2022/08/03 01:38:38;;;;;;;5.63;2.20;;;18.10;99.90;;;;;;4955033;29;20290;-77
2022/08/03 01:41:10;;;;;;;5.67;2.50;;;18.10;99.90;;;;;;4955228;29;20254;-74
2022/08/03 01:43:40;;;;;;;6.40;2.37;;;18.00;99.90;;;;;;4955056;29;20241;-73
2022/08/03 01:46:09;;;;;;;4.43;1.97;;;17.90;99.90;;;;;;4937883;29;20290;-74
2022/08/03 01:48:39;;;;;;;4.90;2.33;;;17.90;99.90;;;;;;4955070;29;20313;-74
2022/08/03 01:51:08;;;;;;;4.40;2.43;;;17.90;99.90;;;;;;4955082;29;20233;-76
2022/08/03 01:53:36;;;;;;;6.00;2.37;;;17.90;99.90;;;;;;4955374;29;20238;-77
2022/08/03 01:56:06;;;;;;;5.53;2.40;;;17.90;99.90;;;;;;4955207;29;20246;-74
2022/08/03 01:58:36;;;;;;;4.13;2.17;;;17.80;99.90;;;;;;4954581;29;20259;-74
2022/08/03 02:01:04;;;;;;;6.27;2.50;;;17.80;99.90;;;;;;4959362;28;20235;-74
2022/08/03 02:03:36;;;;;;;5.97;2.30;;;17.80;99.90;;;;;;4954615;29;20307;-73
2022/08/03 02:06:05;;;;;;;3.77;2.27;;;17.70;99.90;;;;;;4954400;28;20250;-74
2022/08/03 02:08:33;;;;;;;5.53;2.70;;;17.70;99.90;;;;;;4954330;28;20242;-74
2022/08/03 02:11:03;;;;;;;4.53;2.37;;;17.80;99.90;;;;;;4954593;29;20317;-74
2022/08/03 02:13:33;;;;;;;6.43;2.63;;;17.70;99.90;;;;;;4954230;29;20324;-74
2022/08/03 02:16:01;;;;;;;4.77;2.13;;;17.70;99.90;;;;;;4954674;29;20243;-74
2022/08/03 02:18:29;;;;;;;6.23;2.47;;;17.60;99.90;;;;;;4954461;29;20290;-74
2022/08/03 02:20:59;;;;;;;4.67;1.97;;;17.60;99.90;;;;;;4954522;29;20241;-74
2022/08/03 02:23:25;;;;;;;5.37;2.10;;;17.50;99.90;;;;;;4954732;28;20267;-74
2022/08/03 02:25:57;;;;;;;5.03;1.90;;;17.50;99.90;;;;;;4954791;29;20274;-74
2022/08/03 02:28:32;;;;;;;3.67;2.00;;;17.50;99.90;;;;;;4954157;29;20238;-74
2022/08/03 02:31:02;;;;;;;4.57;2.30;;;17.50;99.90;;;;;;4954573;29;20328;-74
2022/08/03 02:33:33;;;;;;;5.43;2.40;;;17.50;99.90;;;;;;4954441;29;20290;-74
2022/08/03 02:36:03;;;;;;;5.47;2.30;;;17.40;99.90;;;;;;4954356;29;20245;-73
2022/08/03 02:38:35;;;;;;;5.80;2.20;;;17.40;99.90;;;;;;4954436;28;20245;-74
2022/08/03 02:41:07;;;;;;;6.13;2.57;;;17.40;99.90;;;;;;4954611;29;20231;-74
2022/08/03 02:43:37;;;;;;;7.30;2.50;;;17.40;99.90;;;;;;4954275;29;20238;-74
2022/08/03 02:46:05;;;;;;;4.80;2.40;;;17.40;99.90;;;;;;4954151;29;20290;-74
2022/08/03 02:48:35;;;;;;;5.83;2.40;;;17.30;99.90;;;;;;4954390;28;20203;-74
2022/08/03 02:51:04;;;;;;;4.77;2.60;;;17.30;99.90;;;;;;4940335;29;20283;-73
2022/08/03 02:53:33;;;;;;;4.90;2.67;;;17.20;99.90;;;;;;4935094;29;20243;-74
2022/08/03 02:56:02;;;;;;;6.33;2.70;;;17.20;99.90;;;;;;4934757;29;20286;-74
2022/08/03 02:58:32;;;;;;;4.00;2.20;;;17.20;99.90;;;;;;4935065;29;20732;-74
2022/08/03 03:01:00;;;;;;;6.13;2.50;;;17.10;99.90;;;;;;4946992;28;20651;-74
2022/08/03 03:03:27;;;;;;;3.70;2.60;;;17.00;99.90;;;;;;4954116;29;20231;-74
2022/08/03 03:05:55;;;;;;;7.80;3.07;;;17.00;99.90;;;;;;4953981;29;20651;-73
2022/08/03 03:08:24;;;;;;;5.77;2.93;;;17.00;99.90;;;;;;4954394;28;20293;-74
2022/08/03 03:10:52;;;;;;;5.60;2.53;;;16.90;99.90;;;;;;4953555;29;20234;-74
2022/08/03 03:13:21;;;;;;;7.97;2.53;;;16.90;99.90;;;;;;4954307;28;20231;-74
2022/08/03 03:15:48;;;;;;;5.00;2.57;;;16.80;99.90;;;;;;4954040;29;20250;-74
2022/08/03 03:18:16;;;;;;;5.43;2.47;;;16.90;99.90;;;;;;4955052;28;20235;-74
2022/08/03 03:20:45;;;;;;;7.03;2.60;;;16.90;99.90;;;;;;4957846;29;20241;-74
2022/08/03 03:23:12;;;;;;;3.40;2.50;;;16.80;99.90;;;;;;4957428;29;20245;-74
2022/08/03 03:25:41;;;;;;;4.73;2.57;;;16.80;99.90;;;;;;4957458;29;20294;-74
2022/08/03 03:28:10;;;;;;;6.73;3.03;;;16.80;99.90;;;;;;4957374;29;20245;-74
2022/08/03 03:30:37;;;;;;;6.17;2.60;;;16.70;99.90;;;;;;4957465;29;20249;-74
2022/08/03 03:33:04;;;;;;;7.63;3.03;;;16.70;99.90;;;;;;4957520;29;20627;-74
2022/08/03 03:35:32;;;;;;;4.87;2.63;;;16.70;99.90;;;;;;4957522;29;20297;-74
2022/08/03 03:37:59;;;;;;;5.20;3.17;;;16.60;99.90;;;;;;4957438;28;20295;-74
2022/08/03 03:40:28;;;;;;;4.63;2.73;;;16.60;99.90;;;;;;4957081;28;20203;-74
2022/08/03 03:42:56;;;;;;;4.27;2.70;;;16.60;99.90;;;;;;4957440;29;20210;-73
2022/08/03 03:45:24;;;;;;;4.33;3.03;;;16.60;99.90;;;;;;4957170;29;20698;-76
2022/08/03 03:47:51;;;;;;;4.63;3.00;;;16.60;99.90;;;;;;4957344;28;20246;-76
2022/08/03 03:50:19;;;;;;;5.00;3.00;;;16.50;99.90;;;;;;4957426;29;20246;-77
2022/08/03 03:52:46;;;;;;;4.40;2.43;;;16.50;99.90;;;;;;4958526;28;20759;-76
2022/08/03 03:55:16;;;;;;;7.40;2.80;;;16.50;99.90;;;;;;4975955;28;20246;-76
2022/08/03 03:57:43;;;;;;;6.23;2.83;;;16.50;99.90;;;;;;4976525;28;20226;-77
2022/08/03 04:00:14;;;;;;;7.17;3.77;;;16.40;99.90;;;;;;4976422;28;20629;-76
2022/08/03 04:02:41;;;;;;;7.40;3.27;;;16.40;99.90;;;;;;4976313;28;20766;-77
2022/08/03 04:11:00;;;;;;;5.43;3.13;;;16.40;99.90;;;;;;4976128;28;20201;-76
2022/08/03 04:13:32;;;;;;;5.00;3.50;;;16.40;99.90;;;;;;4960902;28;20733;-77
2022/08/03 04:16:01;;;;;;;5.10;3.60;;;16.30;99.90;;;;;;4959190;28;20209;-77
2022/08/03 04:18:32;;;;;;;5.93;3.67;;;16.30;99.90;;;;;;4976372;28;20289;-76
2022/08/03 04:21:03;;;;;;;4.30;3.53;;;16.30;99.90;;;;;;4976029;28;20684;-76
2022/08/03 04:23:33;;;;;;;6.33;3.77;;;16.30;99.90;;;;;;4975618;28;20206;-76
2022/08/03 04:26:02;;;;;;;6.00;3.90;;;16.30;99.90;;;;;;4976222;28;20289;-76
2022/08/03 04:28:30;;;;;;;7.67;4.00;;;16.20;99.90;;;;;;4975841;28;20285;-76
2022/08/03 04:30:57;;;;;;;7.77;4.20;;;16.30;99.90;;;;;;4975167;28;20226;-77
2022/08/03 04:33:27;;;;;;;6.97;4.00;;;16.20;99.90;;;;;;4975738;28;20264;-76
2022/08/03 04:35:57;;;;;;;6.00;4.30;;;16.20;99.90;;;;;;4975832;28;20240;-76
2022/08/03 04:38:25;;;;;;;6.23;4.43;;;16.20;99.90;;;;;;4975330;28;20207;-76
2022/08/03 04:40:54;;;;;;;6.57;4.40;;;16.10;99.90;;;;;;4975707;28;20229;-77
2022/08/03 04:43:22;;;;;;;8.20;4.60;;;16.00;99.90;;;;;;4975578;28;20694;-76
2022/08/03 04:45:52;;;;;;;5.50;4.47;;;16.00;99.90;;;;;;4975470;28;20794;-77
2022/08/03 04:48:20;;;;;;;5.97;4.40;;;16.00;99.90;;;;;;4975698;28;20297;-77
2022/08/03 04:50:48;;;;;;;5.70;4.40;;;16.00;99.90;;;;;;4975525;28;20248;-76
2022/08/03 04:53:16;;;;;;;6.77;4.73;;;16.00;99.90;;;;;;4969777;28;20310;-77
2022/08/03 04:55:44;;;;;;;6.97;4.80;;;15.90;99.90;;;;;;4956221;29;20290;-76
2022/08/03 04:58:11;;;;;;;6.13;4.40;;;15.90;99.90;;;;;;4956284;29;20258;-76
2022/08/03 05:00:38;;;;;;;6.30;4.50;;;15.90;99.90;;;;;;4946252;29;20235;-76
2022/08/03 05:03:05;;;;;;;5.93;4.50;;;16.00;99.90;;;;;;4937097;29;20238;-76
2022/08/03 05:05:32;;;;;;;5.73;4.40;;;15.90;99.90;;;;;;4936844;29;20266;-76
2022/08/03 05:08:00;;;;;;;6.83;4.53;;;16.00;99.90;;;;;;4936427;29;20263;-76
2022/08/03 05:10:27;;;;;;;6.57;4.93;;;16.00;99.90;;;;;;4936719;29;20299;-76
2022/08/03 05:12:54;;;;;;;6.90;4.77;;;16.10;99.90;;;;;;4936998;29;20234;-77
2022/08/03 05:15:21;;;;;;;5.33;4.13;;;16.10;99.90;;;;;;4936565;29;20203;-76
2022/08/03 05:17:48;;;;;;;6.40;4.70;;;16.20;99.90;;;;;;4936529;29;20242;-76
2022/08/03 05:20:15;;;;;;;7.93;4.53;;;16.30;99.90;;;;;;4936764;29;20200;-76
2022/08/03 05:22:42;;;;;;;5.67;3.90;;;16.30;99.90;;;;;;4936192;29;20295;-76
2022/08/03 05:25:10;;;;;;;5.53;3.80;;;16.40;99.90;;;;;;4936327;29;20243;-76
2022/08/03 05:27:37;;;;;;;4.80;4.00;;;16.40;99.90;;;;;;4936497;29;20605;-76
2022/08/03 05:30:05;;;;;;;4.40;3.77;;;16.40;99.90;;;;;;4936621;29;20294;-76
2022/08/03 05:32:32;;;;;;;4.53;3.97;;;16.50;99.90;;;;;;4936456;29;20231;-76
2022/08/03 05:34:59;;;;;;;4.10;3.57;;;16.60;99.90;;;;;;4936770;29;20309;-76
2022/08/03 05:37:26;;;;;;;3.73;3.33;;;16.80;99.90;;;;;;4935862;29;20207;-76
2022/08/03 05:39:53;;;;;;;4.50;4.10;;;17.10;99.90;;;;;;4936004;29;20235;-76
2022/08/03 05:42:22;;;;;;;5.73;3.47;;;17.40;99.90;;;;;;4935757;29;20672;-76
2022/08/03 05:44:49;;;;;;;4.13;3.33;;;17.70;99.90;;;;;;4935634;29;20299;-76
2022/08/03 05:47:16;;;;;;;3.92;3.00;;;18.00;99.90;;;;;;4936235;29;20242;-76
2022/08/03 05:49:43;;;;;;;3.25;2.95;;;18.30;99.90;;;;;;4935884;29;20735;-76
2022/08/03 05:52:10;;;;;;;3.80;2.90;;;18.60;99.90;;;;;;4935881;29;20271;-76
2022/08/03 05:54:37;;;;;;;3.58;3.10;;;19.20;99.90;;;;;;4935831;29;20683;-76
2022/08/03 05:57:04;;;;;;;2.97;2.33;;;19.80;99.90;;;;;;4936150;29;20214;-76
2022/08/03 05:59:32;;;;;;;2.80;2.60;;;20.10;99.90;;;;;;4936557;29;20680;-76
2022/08/03 06:01:59;;;;;;;4.47;2.83;;;20.30;99.90;;;;;;4955246;29;20291;-76
2022/08/03 06:04:26;;;;;;;2.50;2.30;;;20.50;99.90;;;;;;4954751;29;20238;-76
2022/08/03 06:06:53;;;;;;;3.35;2.60;;;21.00;99.90;;;;;;4954972;29;20203;-76
2022/08/03 06:09:20;;;;;;;3.70;2.28;;;21.70;99.90;;;;;;4955016;29;20613;-76
2022/08/03 06:11:47;;;;;;;4.07;2.38;;;22.40;99.90;;;;;;4954946;29;20226;-77
2022/08/03 06:14:14;;;;;;;3.90;2.17;;;22.80;99.90;;;;;;4954839;29;20203;-76
2022/08/03 06:16:42;;;;;;;3.08;2.00;;;23.30;99.90;;;;;;4954774;29;20246;-77
2022/08/03 06:19:09;;;;;;;3.85;2.38;;;23.70;99.90;;;;;;4954808;29;20289;-77
2022/08/03 06:21:36;;;;;;;3.17;2.20;;;24.20;99.90;;;;;;4954852;29;20207;-77
2022/08/03 06:24:03;;;;;;;2.33;2.00;;;24.30;99.90;;;;;;4954795;29;20262;-77
2022/08/03 06:26:30;;;;;;;2.17;1.98;;;24.50;99.90;;;;;;4954852;29;20234;-77
2022/08/03 06:28:57;;;;;;;4.28;1.92;;;24.30;99.90;;;;;;4955052;29;20205;-77
2022/08/03 06:31:28;;;;;;;2.95;1.88;;;24.90;99.90;;;;;;4954609;29;20230;-77
2022/08/03 06:33:56;;;;;;;3.00;1.65;;;25.00;99.90;;;;;;4954587;29;20207;-77
2022/08/03 06:36:24;;;;;;;2.95;1.60;;;25.80;99.90;;;;;;4954480;29;20655;-77
2022/08/03 06:38:51;;;;;;;3.20;2.00;;;25.80;99.90;;;;;;4954403;29;20222;-77
2022/08/03 06:41:18;;;;;;;1.77;1.40;;;26.00;99.90;;;;;;4954369;29;20234;-77
2022/08/03 06:43:45;;;;;;;3.47;1.73;;;26.40;99.90;;;;;;4955025;29;20250;-77
2022/08/03 06:46:12;;;;;;;2.72;1.60;;;26.80;99.90;;;;;;4954563;29;20294;-77
2022/08/03 06:48:39;;;;;;;4.15;1.77;;;26.50;99.90;;;;;;4954154;29;20755;-77
2022/08/03 06:51:07;;;;;;;2.72;1.52;;;27.00;99.90;;;;;;4954911;29;20210;-77
2022/08/03 06:53:34;;;;;;;3.05;1.45;;;26.90;99.90;;;;;;4955936;28;20718;-77
2022/08/03 06:56:01;;;;;;;2.38;1.50;;;27.40;99.90;;;;;;4958530;29;20294;-78
2022/08/03 06:58:28;;;;;;;2.55;1.73;;;27.70;99.90;;;;;;4958285;29;20729;-78
2022/08/03 07:00:55;;;;;;;2.95;1.60;;;27.70;99.90;;;;;;4958448;29;20289;-77
2022/08/03 07:03:22;;;;;;;1.45;1.35;;;28.10;99.90;;;;;;4957921;29;20235;-77
2022/08/03 07:05:50;;;;;;;3.95;1.70;;;28.10;99.90;;;;;;4958215;29;20726;-77
2022/08/03 07:08:18;;;;;;;2.65;1.65;;;28.20;99.90;;;;;;4958019;29;20207;-77
2022/08/03 07:10:45;;;;;;;2.17;1.27;;;28.30;99.90;;;;;;4958339;29;20295;-78
2022/08/03 07:13:12;;;;;;;2.80;1.67;;;28.90;99.90;;;;;;4957841;29;20266;-78
2022/08/03 07:15:40;;;;;;;2.70;1.30;;;28.40;99.90;;;;;;4958353;29;20239;-77
2022/08/03 07:18:07;;;;;;;1.88;1.25;;;28.70;99.90;;;;;;4957813;29;20243;-78
2022/08/03 07:20:33;;;;;;;2.55;1.38;;;29.80;99.90;;;;;;4958115;29;20230;-77
2022/08/03 07:23:00;;;;;;;1.98;1.17;;;29.60;99.90;;;;;;4957901;29;20242;-77
2022/08/03 07:25:29;;;;;;;1.83;1.40;;;29.00;99.90;;;;;;4957671;29;20667;-77
2022/08/03 07:27:55;;;;;;;1.48;1.27;;;29.50;99.90;;;;;;4957725;29;20246;-77
2022/08/03 07:30:23;;;;;;;2.55;1.40;;;29.80;99.90;;;;;;4957762;29;20203;-77
2022/08/03 07:32:50;;;;;;;2.20;1.27;;;30.40;99.90;;;;;;4957441;29;20259;-78
2022/08/03 07:35:16;;;;;;;2.78;1.30;;;30.90;99.90;;;;;;4957594;29;20262;-78
2022/08/03 07:37:43;;;;;;;3.58;1.30;;;30.50;99.90;;;;;;4958038;29;20234;-78
2022/08/03 07:40:11;;;;;;;2.67;1.10;;;29.90;99.90;;;;;;4957934;29;20677;-78
2022/08/03 07:42:39;;;;;;;2.40;1.30;;;30.30;99.90;;;;;;4957752;29;20231;-78
2022/08/03 07:45:07;;;;;;;2.42;1.15;;;30.50;99.90;;;;;;4957673;29;20286;-78
2022/08/03 07:47:34;;;;;;;1.90;1.20;;;30.70;99.90;;;;;;4957491;29;20249;-78
2022/08/03 07:50:01;;;;;;;4.28;1.58;;;30.50;99.90;;;;;;4957318;29;20205;-78
2022/08/03 07:55:12;;;;;;;4.47;1.40;;;30.50;99.90;;;;;;4957562;29;20265;-78
2022/08/03 07:57:41;;;;;;;2.45;1.30;;;30.80;99.90;;;;;;4957180;29;20255;-78
2022/08/03 08:00:14;;;;;;;2.55;1.45;;;31.10;99.90;;;;;;4957266;29;20333;-78
2022/08/03 08:02:41;;;;;;;3.63;1.20;;;31.10;99.90;;;;;;4957138;29;20294;-78
2022/08/03 08:05:09;;;;;;;4.38;1.30;;;31.10;99.90;;;;;;4956012;28;20250;-78
2022/08/03 08:07:37;;;;;;;5.72;1.50;;;31.80;99.90;;;;;;4957421;29;20240;-78
2022/08/03 08:10:05;;;;;;;6.45;1.30;;;32.10;99.90;;;;;;4957239;29;20203;-78
2022/08/03 08:12:32;;;;;;;5.28;1.40;;;31.50;99.90;;;;;;4956889;29;20231;-78
2022/08/03 08:15:00;;;;;;;6.10;1.63;;;32.00;99.90;;;;;;4957045;29;20301;-78
2022/08/03 08:17:27;;;;;;;4.70;1.20;;;31.30;99.90;;;;;;4956897;29;20242;-78
2022/08/03 08:19:54;;;;;;;8.02;1.20;;;32.20;99.90;;;;;;4956988;29;20285;-78
2022/08/03 08:22:21;;;;;;;3.75;1.63;;;32.30;99.90;;;;;;4957073;29;20298;-78
2022/08/03 08:24:48;;;;;;;4.13;1.25;;;31.90;99.90;;;;;;4956711;29;20234;-78
2022/08/03 08:27:16;;;;;;;3.97;1.30;;;33.20;99.90;;;;;;4956879;29;20668;-78
2022/08/03 08:29:42;;;;;;;4.53;1.48;;;34.20;99.90;;;;;;4956483;29;20203;-78
2022/08/03 08:32:13;;;;;;;2.70;1.13;;;33.30;99.90;;;;;;4956600;29;20294;-79
2022/08/03 08:34:40;;;;;;;6.18;1.20;;;33.90;99.90;;;;;;4956511;29;20532;-78
2022/08/03 08:37:07;;;;;;;13.13;1.30;;;35.00;99.90;;;;;;4956589;29;20245;-78
2022/08/03 08:39:34;;;;;;;4.10;1.30;;;35.30;99.90;;;;;;4956494;29;20289;-78
2022/08/03 08:42:01;;;;;;;10.75;2.25;;;35.90;99.90;;;;;;4956684;29;20241;-79
2022/08/03 08:44:29;;;;;;;3.45;1.27;;;35.30;99.90;;;;;;4955999;29;20291;-78
2022/08/03 08:46:59;;;;;;;6.68;1.30;;;34.60;99.90;;;;;;4956391;29;20211;-78
2022/08/03 08:49:29;;;;;;;3.65;1.50;;;34.60;99.90;;;;;;4956270;29;20245;-78
2022/08/03 08:51:57;;;;;;;2.90;1.50;;;33.60;99.90;;;;;;4956068;29;20241;-78
2022/08/03 08:54:25;;;;;;;4.47;1.30;;;33.80;99.90;;;;;;4956334;29;20317;-78
2022/08/03 08:56:56;;;;;;;3.58;0.98;;;34.20;99.90;;;;;;4956191;29;20297;-78
2022/08/03 08:59:24;;;;;;;2.15;1.17;;;34.50;99.90;;;;;;4956161;29;20253;-78
2022/08/03 09:01:51;;;;;;;3.58;1.33;;;34.80;99.90;;;;;;4956105;29;20218;-78
2022/08/03 09:04:18;;;;;;;5.80;1.40;;;35.50;99.90;;;;;;4955932;29;20233;-78
2022/08/03 09:06:47;;;;;;;7.60;1.40;;;35.60;99.90;;;;;;4955669;29;20202;-78
2022/08/03 09:09:13;;;;;;;4.65;1.50;;;35.80;95.30;;;;;;4955927;29;20261;-78
2022/08/03 09:11:43;;;;;;;3.92;1.38;;;35.80;90.30;;;;;;4956227;29;20241;-78
2022/08/03 09:14:10;;;;;;;3.53;1.55;;;37.10;73.80;;;;;;4955304;29;20301;-78
2022/08/03 09:16:37;;;;;;;3.10;1.25;;;38.10;51.20;;;;;;4955606;28;20286;-79
2022/08/03 09:19:12;;;;;;;5.18;1.38;;;38.20;33.70;;;;;;4955762;29;20202;-79
2022/08/03 09:21:40;;;;;;;1.58;1.17;;;39.40;18.70;;;;;;4955615;29;20208;-78
2022/08/03 09:24:08;;;;;;;3.88;1.40;;;40.00;7.20;;;;;;4955526;29;20245;-79
2022/08/03 09:26:37;;;;;;;3.53;1.27;;;40.10;1.40;;;;;;4955378;29;20262;-79
2022/08/03 09:29:07;;;;;;;3.00;1.38;;;40.40;1.00;;;;;;4955282;29;20230;-78
2022/08/03 09:31:36;;;;;;;3.42;1.30;;;38.50;1.00;;;;;;4955454;29;20238;-79
2022/08/03 09:34:05;;;;;;;4.25;1.17;;;39.30;1.00;;;;;;4955301;29;20289;-79
2022/08/03 09:36:37;;;;;;;2.55;1.10;;;39.00;1.00;;;;;;4955429;29;20305;-75
2022/08/03 09:39:05;;;;;;;2.13;1.48;;;38.80;1.00;;;;;;4955123;29;20238;-74
2022/08/03 09:41:33;;;;;;;2.60;1.20;;;39.00;1.00;;;;;;4954689;29;20206;-75
2022/08/03 09:44:00;;;;;;;4.28;1.27;;;38.90;1.00;;;;;;4954908;29;20269;-74
2022/08/03 09:46:30;;;;;;;3.80;1.30;;;39.60;1.00;;;;;;4954882;29;20241;-76
2022/08/03 09:49:10;;;;;;;1.70;1.20;;;38.80;1.00;;;;;;4954815;29;20285;-79
2022/08/03 09:51:37;;;;;;;2.78;1.30;;;40.30;1.00;;;;;;4954900;29;20206;-79
2022/08/03 09:54:05;;;;;;;2.78;1.45;;;40.50;1.00;;;;;;4966567;28;20297;-79
2022/08/03 09:56:45;;;;;;;2.40;1.38;;;40.30;1.00;;;;;;4957277;28;20307;-79
2022/08/03 09:59:13;;;;;;;2.70;1.27;;;39.90;1.00;;;;;;4974288;28;20217;-79
2022/08/03 10:01:41;;;;;;;1.70;1.10;;;39.70;1.00;;;;;;4956225;28;20266;-79
2022/08/03 10:04:14;;;;;;;3.50;1.40;;;40.70;1.00;;;;;;4954841;29;20232;-79
2022/08/03 10:06:41;;;;;;;2.05;1.10;;;40.70;1.00;;;;;;4955110;29;20210;-78
2022/08/03 10:09:09;;;;;;;3.60;1.40;;;40.20;1.00;;;;;;4954935;29;20245;-79
2022/08/03 10:11:37;;;;;;;3.15;1.40;;;41.40;1.00;;;;;;4954685;29;20202;-79
2022/08/03 10:14:07;;;;;;;1.58;1.30;;;40.90;1.00;;;;;;4954753;29;20294;-79
2022/08/03 10:16:36;;;;;;;3.70;1.10;;;40.80;1.00;;;;;;4954722;28;20285;-79
2022/08/03 10:19:04;;;;;;;2.75;1.45;;;41.00;1.00;;;;;;4955199;29;20234;-79
2022/08/03 10:21:33;;;;;;;2.30;1.30;;;40.70;1.00;;;;;;4954788;28;20641;-79
2022/08/03 10:24:03;;;;;;;4.55;1.20;;;41.20;1.00;;;;;;4954567;29;20721;-79
2022/08/03 10:26:32;;;;;;;2.22;1.23;;;40.10;1.00;;;;;;4954220;29;20234;-79
2022/08/03 10:29:02;;;;;;;3.92;1.38;;;40.40;1.00;;;;;;4954241;29;20241;-79
2022/08/03 10:31:38;;;;;;;4.70;1.10;;;40.60;1.00;;;;;;4954723;28;20206;-79
2022/08/03 10:34:11;;;;;;;1.73;1.20;;;40.00;1.00;;;;;;4954886;29;20194;-79
2022/08/03 10:36:40;;;;;;;2.78;1.20;;;38.80;1.00;;;;;;4954690;28;20238;-79
2022/08/03 10:39:07;;;;;;;2.92;1.38;;;39.30;1.00;;;;;;4954810;29;20595;-79
2022/08/03 10:41:39;;;;;;;2.20;1.77;;;40.80;1.00;;;;;;4954222;28;20234;-79
2022/08/03 10:44:09;;;;;;;2.90;1.40;;;41.80;1.00;;;;;;4954440;29;20262;-79
2022/08/03 10:46:40;;;;;;;2.60;1.10;;;41.90;1.00;;;;;;4954431;29;20249;-79
2022/08/03 10:49:07;;;;;;;3.35;1.17;;;40.90;1.00;;;;;;4954400;29;20297;-79
2022/08/03 10:51:34;;;;;;;4.95;1.17;;;41.00;1.00;;;;;;4954752;28;20294;-79
2022/08/03 10:54:01;;;;;;;2.88;1.05;;;41.30;1.00;;;;;;4954801;29;20242;-79
2022/08/03 10:59:57;;;;;;;3.83;1.35;;;40.80;1.00;;;;;;4954695;29;20269;-79
2022/08/03 11:03:05;;;;;;;2.28;1.10;;;40.50;1.00;;;;;;4954611;28;20210;-79
2022/08/03 11:05:34;;;;;;;6.05;1.48;;;41.80;1.00;;;;;;4953427;29;20206;-79
2022/08/03 11:08:21;;;;;;;5.05;1.20;;;42.00;1.00;;;;;;4954252;29;20215;-79
2022/08/03 11:10:49;;;;;;;4.32;1.17;;;40.50;1.00;;;;;;4953684;29;20722;-79
2022/08/03 11:13:18;;;;;;;4.18;1.38;;;41.60;1.00;;;;;;4954149;28;20235;-79
2022/08/03 11:15:47;;;;;;;2.47;1.20;;;41.60;1.00;;;;;;4954301;29;20209;-79
2022/08/03 11:18:16;;;;;;;4.53;1.33;;;41.30;1.00;;;;;;4954068;29;20262;-79
2022/08/03 11:20:47;;;;;;;1.80;1.08;;;41.30;1.00;;;;;;4954128;28;20202;-79
2022/08/03 11:23:16;;;;;;;3.03;1.25;;;41.40;1.00;;;;;;4953854;28;20250;-78
2022/08/03 11:26:11;;;;;;;1.30;1.20;;;41.30;1.00;;;;;;4954123;28;20228;-79
2022/08/03 11:28:39;;;;;;;3.38;1.23;;;41.60;1.00;;;;;;4953850;29;20344;-79
2022/08/03 11:31:48;;;;;;;2.40;1.40;;;42.00;1.00;;;;;;4954207;29;20671;-79
2022/08/03 11:34:17;;;;;;;5.05;1.50;;;42.10;1.00;;;;;;4954293;29;20230;-74
2022/08/03 11:37:17;;;;;;;4.63;1.60;;;41.40;1.00;;;;;;4954103;29;20254;-75
2022/08/03 11:39:46;;;;;;;3.40;1.33;;;41.00;1.00;;;;;;4916198;29;20239;-74
2022/08/03 11:42:40;;;;;;;2.22;1.45;;;40.00;1.00;;;;;;4919139;29;20649;-75
2022/08/03 11:45:09;;;;;;;1.75;1.30;;;40.40;1.00;;;;;;4918805;29;20291;-74
2022/08/03 11:47:39;;;;;;;4.82;1.40;;;41.60;1.00;;;;;;4919231;29;20210;-75
2022/08/03 11:50:08;;;;;;;4.25;1.23;;;40.90;1.00;;;;;;4919363;29;20211;-74
2022/08/03 11:52:40;;;;;;;2.85;1.20;;;41.00;1.00;;;;;;4918591;29;20239;-75
2022/08/03 11:55:12;;;;;;;3.75;1.27;;;42.10;1.00;;;;;;4919006;29;20208;-75
2022/08/03 11:57:39;;;;;;;2.67;1.27;;;41.50;1.00;;;;;;4918794;29;20649;-74
2022/08/03 12:00:27;;;;;;;2.25;1.27;;;41.60;1.00;;;;;;4924117;29;20325;-75
2022/08/03 12:03:00;;;;;;;3.67;1.38;;;41.90;1.00;;;;;;4937564;29;20209;-75
2022/08/03 12:05:36;;;;;;;2.70;1.30;;;41.70;1.00;;;;;;4937976;29;20263;-74
2022/08/03 12:08:04;;;;;;;2.60;1.20;;;43.00;1.00;;;;;;4937341;29;20676;-75
2022/08/03 12:10:31;;;;;;;3.55;1.40;;;41.90;1.00;;;;;;4937854;29;20239;-74
2022/08/03 12:13:00;;;;;;;2.88;1.40;;;39.80;1.00;;;;;;4937566;29;20246;-74
2022/08/03 12:15:28;;;;;;;2.42;1.20;;;39.80;1.00;;;;;;4937389;29;20207;-74
2022/08/03 12:17:56;;;;;;;4.93;1.40;;;39.40;1.00;;;;;;4937671;29;20293;-75
2022/08/03 12:20:26;;;;;;;3.05;1.30;;;40.90;1.00;;;;;;4937678;29;20294;-75
2022/08/03 12:22:54;;;;;;;1.75;1.20;;;39.70;1.00;;;;;;4937182;29;20584;-76
2022/08/03 12:25:22;;;;;;;3.75;1.80;;;40.70;1.00;;;;;;4937330;29;20262;-74
2022/08/03 12:27:50;;;;;;;2.70;1.40;;;42.00;1.00;;;;;;4937261;29;20623;-75
2022/08/03 12:30:17;;;;;;;2.53;1.38;;;41.40;1.00;;;;;;4937356;29;20242;-75
2022/08/03 12:32:45;;;;;;;3.42;1.40;;;41.60;1.00;;;;;;4937362;29;20253;-75
2022/08/03 12:35:23;;;;;;;2.58;1.40;;;41.40;1.00;;;;;;4937638;29;20203;-75
2022/08/03 12:37:50;;;;;;;2.75;1.10;;;40.40;1.00;;;;;;4936650;29;20258;-75
2022/08/03 12:40:27;;;;;;;2.13;1.40;;;41.50;1.00;;;;;;4953523;29;20366;-75
2022/08/03 12:42:54;;;;;;;3.35;1.40;;;42.00;1.00;;;;;;4956102;29;20598;-75
2022/08/03 12:45:22;;;;;;;3.60;1.25;;;41.60;1.00;;;;;;4956028;29;20317;-74
2022/08/03 12:47:54;;;;;;;2.92;1.40;;;40.00;1.00;;;;;;4956565;29;20257;-74
2022/08/03 12:50:26;;;;;;;2.38;1.30;;;40.70;1.00;;;;;;4955393;28;20234;-74
2022/08/03 12:52:54;;;;;;;2.38;1.48;;;41.00;1.00;;;;;;4956216;29;20202;-75
2022/08/03 12:55:22;;;;;;;3.05;1.20;;;40.90;1.00;;;;;;4955916;29;20293;-74
2022/08/03 12:57:50;;;;;;;3.95;1.20;;;41.10;1.00;;;;;;4955710;29;20281;-74
2022/08/03 13:00:19;;;;;;;2.42;1.20;;;41.30;1.00;;;;;;4955930;29;20234;-75
2022/08/03 13:02:46;;;;;;;1.88;1.20;;;41.70;1.00;;;;;;4956023;29;20198;-78
2022/08/03 13:05:14;;;;;;;2.30;1.25;;;41.70;1.00;;;;;;4955461;29;20729;-78
2022/08/03 13:07:42;;;;;;;3.05;1.40;;;41.60;1.00;;;;;;4955715;29;20257;-78
2022/08/03 13:10:10;;;;;;;2.00;1.27;;;40.80;1.00;;;;;;4955706;29;20246;-78
2022/08/03 13:12:47;;;;;;;5.20;1.60;;;40.70;1.00;;;;;;4955946;29;20234;-78